Time;durP1;ratioP1;P1;durP2;ratioP2;P2;SDS_P1;SDS_P2;PMS_P1;PMS_P2;Temp;Humidity;BMP_temperature;BMP_pressure;BME280_temperature;BME280_humidity;BME280_pressure;Samples;Min_cycle;Max_cycle;Signal;HPM_P1;HPM_P2
2022/11/06 00:04:02;;;;;;;9.03;5.10;;;14.30;99.90;;;;;;7729674;77;26325;-53
2022/11/06 00:14:05;;;;;;;10.20;4.07;;;13.30;99.90;;;;;;7744692;75;26257;-53
2022/11/06 00:24:08;;;;;;;8.97;3.23;;;14.10;99.90;;;;;;7746929;77;26310;-53
2022/11/06 00:34:11;;;;;;;6.47;3.17;;;14.10;99.90;;;;;;7746894;77;26249;-53
2022/11/06 00:44:14;;;;;;;9.93;3.27;;;14.10;99.90;;;;;;7765684;75;26861;-54
2022/11/06 00:54:16;;;;;;;7.70;3.53;;;14.20;99.90;;;;;;7742383;77;26329;-52
2022/11/06 01:04:21;;;;;;;11.07;3.47;;;14.10;99.90;;;;;;7736559;77;26358;-52
2022/11/06 01:14:25;;;;;;;14.47;3.43;;;14.20;99.90;;;;;;7744082;75;26268;-52
2022/11/06 01:24:28;;;;;;;11.30;3.80;;;14.10;99.90;;;;;;7725004;77;26283;-52
2022/11/06 01:34:31;;;;;;;10.33;4.20;;;14.10;99.90;;;;;;7741400;77;26272;-54
2022/11/06 01:44:36;;;;;;;10.87;4.17;;;14.10;99.90;;;;;;7739272;77;26256;-53
2022/11/06 01:54:42;;;;;;;9.33;3.33;;;13.90;99.90;;;;;;7744389;75;26325;-55
2022/11/06 02:04:47;;;;;;;6.07;3.50;;;14.00;99.90;;;;;;7733767;76;26280;-54
2022/11/06 02:15:01;;;;;;;9.57;4.57;;;13.70;99.90;;;;;;7740984;75;26296;-51
2022/11/06 02:25:19;;;;;;;10.07;3.40;;;13.70;99.90;;;;;;7733942;77;26327;-51
2022/11/06 02:35:24;;;;;;;9.27;3.83;;;13.60;99.90;;;;;;7741093;77;26606;-53
2022/11/06 02:45:28;;;;;;;6.73;3.90;;;13.20;99.90;;;;;;7730365;75;26386;-54
2022/11/06 02:55:37;;;;;;;9.20;3.60;;;13.00;99.90;;;;;;7727458;75;26341;-54
2022/11/06 03:05:48;;;;;;;8.57;3.73;;;13.30;99.90;;;;;;7728944;77;26255;-53
2022/11/06 03:16:03;;;;;;;7.07;4.07;;;13.10;99.90;;;;;;7730112;75;26237;-52
2022/11/06 03:26:16;;;;;;;9.80;3.77;;;13.10;99.90;;;;;;7738540;75;26658;-52
2022/11/06 03:36:28;;;;;;;7.50;3.30;;;13.30;99.90;;;;;;7743905;75;26754;-53
2022/11/06 03:46:33;;;;;;;7.73;3.63;;;13.00;99.90;;;;;;7721306;76;26240;-51
2022/11/06 03:56:39;;;;;;;6.57;3.20;;;12.90;99.90;;;;;;7730665;77;26830;-53
2022/11/06 04:07:00;;;;;;;10.73;4.10;;;12.80;99.90;;;;;;7744840;77;26237;-53
2022/11/06 04:17:05;;;;;;;7.57;3.50;;;12.60;99.90;;;;;;7730440;75;26738;-53
2022/11/06 04:27:27;;;;;;;8.77;3.37;;;12.90;99.90;;;;;;7746722;76;26252;-53
2022/11/06 04:37:52;;;;;;;8.77;3.33;;;13.10;99.90;;;;;;7722826;75;26794;-53
2022/11/06 04:47:55;;;;;;;16.37;3.77;;;13.00;99.90;;;;;;7738638;77;26348;-55
2022/11/06 04:57:57;;;;;;;6.97;3.63;;;13.20;99.90;;;;;;7734333;75;26283;-55
2022/11/06 05:08:00;;;;;;;7.53;3.40;;;13.10;99.90;;;;;;7744475;77;26330;-54
2022/11/06 05:18:02;;;;;;;7.40;3.90;;;13.10;99.90;;;;;;7746916;77;26742;-51
2022/11/06 05:28:06;;;;;;;13.50;5.40;;;12.60;99.90;;;;;;7746928;77;26240;-53
2022/11/06 05:38:09;;;;;;;6.03;4.23;;;12.70;99.90;;;;;;7753173;75;26730;-53
2022/11/06 05:48:11;;;;;;;6.67;3.47;;;13.10;99.90;;;;;;7747381;77;26245;-54
2022/11/06 05:58:14;;;;;;;6.33;3.47;;;13.00;99.90;;;;;;7739247;76;26274;-52
2022/11/06 06:08:17;;;;;;;9.57;3.87;;;12.80;99.90;;;;;;7741168;77;26287;-53
2022/11/06 06:18:20;;;;;;;11.03;3.70;;;13.00;99.90;;;;;;7739801;77;26256;-55
2022/11/06 06:28:22;;;;;;;5.63;3.77;;;13.00;99.90;;;;;;7736668;77;26850;-53
2022/11/06 06:38:26;;;;;;;6.73;3.67;;;12.70;99.90;;;;;;7730574;77;26335;-52
2022/11/06 06:48:29;;;;;;;7.30;3.67;;;12.60;99.90;;;;;;7703872;77;26753;-53
2022/11/06 06:58:32;;;;;;;10.10;3.83;;;12.90;99.90;;;;;;7710184;77;26795;-53
2022/11/06 07:08:35;;;;;;;4.77;2.93;;;12.80;99.90;;;;;;7715258;77;26291;-53
2022/11/06 07:18:38;;;;;;;5.63;3.07;;;13.00;99.90;;;;;;7716314;77;26917;-54
2022/11/06 07:28:41;;;;;;;6.30;2.97;;;13.10;99.90;;;;;;7734731;77;27571;-51
2022/11/06 07:38:44;;;;;;;10.80;3.57;;;13.00;99.90;;;;;;7707936;77;26349;-51
2022/11/06 07:48:46;;;;;;;128.17;55.90;;;12.60;99.90;;;;;;7723685;77;26806;-52
2022/11/06 07:58:48;;;;;;;16.73;6.50;;;12.70;99.90;;;;;;7732160;75;26290;-54
2022/11/06 08:08:51;;;;;;;10.37;4.27;;;12.90;99.90;;;;;;7739711;77;26252;-55
2022/11/06 08:18:54;;;;;;;15.47;3.83;;;13.00;99.90;;;;;;7685238;77;26264;-54
2022/11/06 08:28:56;;;;;;;11.73;3.87;;;13.00;99.90;;;;;;7724232;77;26300;-52
2022/11/06 08:38:59;;;;;;;24.20;3.47;;;13.20;99.90;;;;;;7698452;77;26325;-57
2022/11/06 08:49:01;;;;;;;11.37;3.27;;;13.40;99.90;;;;;;7710178;77;26311;-54
2022/11/06 08:59:04;;;;;;;4.40;2.47;;;13.60;99.90;;;;;;7714567;77;27452;-52
2022/11/06 09:09:06;;;;;;;16.47;4.07;;;13.80;99.90;;;;;;7727147;75;26656;-55
2022/11/06 09:19:09;;;;;;;20.87;7.17;;;13.90;99.90;;;;;;7728907;77;26628;-55
2022/11/06 09:29:11;;;;;;;22.07;6.33;;;14.10;99.90;;;;;;7736769;77;26316;-53
2022/11/06 09:39:14;;;;;;;26.37;6.53;;;14.30;99.90;;;;;;7724931;77;26303;-54
2022/11/06 09:49:26;;;;;;;23.87;7.00;;;14.30;99.90;;;;;;7714583;76;26318;-53
2022/11/06 09:59:32;;;;;;;19.83;6.33;;;14.40;99.90;;;;;;7736565;77;26295;-53
2022/11/06 10:09:35;;;;;;;18.77;6.13;;;14.50;99.90;;;;;;7733318;77;26373;-54
2022/11/06 10:19:41;;;;;;;17.80;6.27;;;14.60;99.90;;;;;;7731497;77;26233;-53
2022/11/06 10:29:46;;;;;;;12.27;4.30;;;14.70;99.90;;;;;;7693059;77;26260;-52
2022/11/06 10:39:50;;;;;;;9.00;2.90;;;14.70;99.90;;;;;;7745819;77;26276;-53
2022/11/06 10:49:55;;;;;;;7.10;3.43;;;14.70;99.90;;;;;;7729111;77;26326;-53
2022/11/06 10:59:58;;;;;;;7.73;2.63;;;14.70;99.90;;;;;;7739362;77;26318;-53
2022/11/06 11:10:12;;;;;;;5.83;2.50;;;14.70;99.90;;;;;;7735394;77;26272;-54
2022/11/06 11:20:32;;;;;;;3.47;2.10;;;14.70;99.90;;;;;;7661343;77;26248;-54
2022/11/06 11:30:35;;;;;;;13.80;4.57;;;14.50;99.90;;;;;;7687447;76;26329;-56
2022/11/06 11:40:38;;;;;;;51.37;24.30;;;14.40;99.90;;;;;;7711764;77;26790;-53
2022/11/06 11:50:41;;;;;;;28.90;13.80;;;14.60;99.90;;;;;;7733884;77;26401;-53
2022/11/06 12:01:01;;;;;;;36.67;18.13;;;14.80;99.90;;;;;;7746222;77;26249;-54
2022/11/06 12:11:06;;;;;;;23.90;11.37;;;14.70;99.90;;;;;;7745554;77;26244;-53
2022/11/06 12:21:28;;;;;;;19.87;10.43;;;14.40;99.90;;;;;;7730513;77;26849;-55
2022/11/06 12:31:34;;;;;;;18.17;10.27;;;14.70;99.90;;;;;;7731407;77;26345;-56
2022/11/06 12:41:39;;;;;;;12.00;6.27;;;14.70;99.90;;;;;;7737810;76;26311;-56
2022/11/06 12:52:07;;;;;;;7.67;4.20;;;14.70;99.90;;;;;;7703188;77;26804;-56
2022/11/06 13:02:18;;;;;;;9.40;4.17;;;14.70;99.90;;;;;;7731397;77;26322;-54
2022/11/06 13:12:40;;;;;;;9.90;3.93;;;14.60;99.90;;;;;;7733084;77;26425;-55
2022/11/06 13:22:52;;;;;;;8.20;3.50;;;14.70;99.90;;;;;;7697255;77;26427;-55
2022/11/06 13:33:18;;;;;;;8.17;3.50;;;14.70;99.90;;;;;;7691793;77;26300;-56
2022/11/06 13:43:36;;;;;;;5.77;3.57;;;14.60;99.90;;;;;;7711764;77;26280;-55
2022/11/06 13:53:42;;;;;;;7.93;3.50;;;14.70;99.90;;;;;;7669457;77;26319;-55
2022/11/06 14:03:59;;;;;;;9.17;4.10;;;14.50;99.90;;;;;;7688513;77;26332;-55
2022/11/06 14:14:07;;;;;;;11.87;4.57;;;14.70;99.90;;;;;;7698350;77;26385;-56
2022/11/06 14:24:15;;;;;;;8.27;3.73;;;14.70;99.90;;;;;;7695206;77;26595;-54
2022/11/06 14:34:29;;;;;;;6.27;3.60;;;14.60;99.90;;;;;;7715113;77;27334;-52
2022/11/06 14:44:40;;;;;;;9.97;4.10;;;14.50;99.90;;;;;;7715961;75;26307;-56
2022/11/06 14:54:55;;;;;;;13.23;5.27;;;14.50;99.90;;;;;;7713491;77;26763;-56
2022/11/06 15:05:01;;;;;;;18.03;4.93;;;14.50;99.90;;;;;;7715291;77;26801;-53
2022/11/06 15:15:07;;;;;;;9.83;4.97;;;14.50;99.90;;;;;;7716948;77;26689;-54
2022/11/06 15:25:18;;;;;;;10.77;4.00;;;14.60;99.90;;;;;;7719470;76;26664;-52
2022/11/06 15:35:30;;;;;;;9.70;3.77;;;14.50;99.90;;;;;;7711831;75;26346;-56
2022/11/06 15:45:32;;;;;;;8.53;3.93;;;14.60;99.90;;;;;;7726745;76;26278;-57
2022/11/06 15:55:38;;;;;;;8.17;4.07;;;14.60;99.90;;;;;;7683117;77;26429;-56
2022/11/06 16:05:41;;;;;;;6.03;3.90;;;14.50;99.90;;;;;;7661935;77;26879;-56
2022/11/06 16:15:47;;;;;;;7.63;3.70;;;14.50;99.90;;;;;;7673716;77;27157;-54
2022/11/06 16:25:51;;;;;;;7.40;3.87;;;14.50;99.90;;;;;;7674453;75;26355;-55
2022/11/06 16:35:56;;;;;;;6.77;3.30;;;14.50;99.90;;;;;;7685682;76;27361;-54
2022/11/06 16:46:06;;;;;;;13.23;4.30;;;14.50;99.90;;;;;;7690807;76;26393;-53
2022/11/06 16:56:08;;;;;;;30.30;10.67;;;14.50;99.90;;;;;;7697907;76;26405;-55
2022/11/06 17:06:19;;;;;;;31.73;14.47;;;14.40;99.90;;;;;;7713922;77;26390;-56
2022/11/06 17:16:25;;;;;;;24.27;10.33;;;14.40;99.90;;;;;;7713621;77;26322;-56
2022/11/06 17:26:30;;;;;;;17.87;8.07;;;14.50;99.90;;;;;;7729989;77;26316;-56
2022/11/06 17:36:33;;;;;;;24.43;9.90;;;14.40;99.90;;;;;;7706124;76;26370;-56
2022/11/06 17:46:39;;;;;;;13.33;7.27;;;14.50;99.90;;;;;;7714568;75;26581;-56
2022/11/06 17:56:42;;;;;;;20.63;9.30;;;14.40;99.90;;;;;;7726410;77;26276;-54
2022/11/06 18:06:46;;;;;;;21.37;8.13;;;14.50;99.90;;;;;;7726496;77;26278;-54
2022/11/06 18:16:49;;;;;;;18.33;7.83;;;14.40;99.90;;;;;;7737059;77;26790;-56
2022/11/06 18:26:52;;;;;;;14.40;5.40;;;14.30;99.90;;;;;;7702232;77;26777;-56
2022/11/06 18:36:54;;;;;;;16.90;6.80;;;14.30;99.90;;;;;;7735097;76;26768;-54
2022/11/06 18:46:57;;;;;;;16.13;6.00;;;14.40;99.90;;;;;;7707899;77;26298;-54
2022/11/06 18:56:59;;;;;;;16.00;5.33;;;14.30;99.90;;;;;;7712137;77;26283;-56
2022/11/06 19:07:02;;;;;;;12.67;4.60;;;14.40;99.90;;;;;;7723199;77;26349;-54
2022/11/06 19:17:04;;;;;;;8.70;4.20;;;14.30;99.90;;;;;;7705754;77;26338;-56
2022/11/06 19:27:07;;;;;;;7.97;4.07;;;14.40;99.90;;;;;;7724319;75;26373;-55
2022/11/06 19:37:10;;;;;;;6.90;3.53;;;14.20;99.90;;;;;;7736113;77;26319;-57
2022/11/06 19:47:12;;;;;;;12.40;3.67;;;14.40;99.90;;;;;;7705839;75;26342;-55
2022/11/06 19:57:15;;;;;;;11.30;3.70;;;14.30;99.90;;;;;;7703809;77;26326;-56
2022/11/06 20:07:17;;;;;;;8.40;3.80;;;14.30;99.90;;;;;;7727047;77;26257;-57
2022/11/06 20:17:20;;;;;;;13.13;4.53;;;14.40;99.90;;;;;;7703409;75;26350;-56
2022/11/06 20:27:22;;;;;;;6.17;3.40;;;14.20;99.90;;;;;;7714562;75;26311;-58
2022/11/06 20:37:26;;;;;;;10.73;5.17;;;14.30;99.90;;;;;;7725497;75;26335;-55
2022/11/06 20:47:28;;;;;;;7.63;3.63;;;14.30;99.90;;;;;;7678796;77;26697;-57
2022/11/06 20:57:31;;;;;;;14.00;5.57;;;14.40;99.90;;;;;;7715127;77;26335;-59
2022/11/06 21:07:34;;;;;;;22.33;8.97;;;14.20;99.90;;;;;;7734211;75;26347;-54
2022/11/06 21:17:38;;;;;;;11.90;4.90;;;14.30;99.90;;;;;;7723848;75;26906;-56
2022/11/06 21:27:40;;;;;;;13.33;6.77;;;14.30;99.90;;;;;;7732909;77;26260;-56
2022/11/06 21:37:43;;;;;;;9.30;5.50;;;14.20;99.90;;;;;;7709179;76;26241;-56
2022/11/06 21:47:45;;;;;;;11.80;5.30;;;14.30;99.90;;;;;;7735221;77;26735;-57
2022/11/06 21:57:48;;;;;;;5.57;3.50;;;14.20;99.90;;;;;;7722081;77;26234;-57
2022/11/06 22:07:50;;;;;;;7.20;4.00;;;14.20;99.90;;;;;;7726436;77;26245;-56
2022/11/06 22:17:53;;;;;;;9.57;3.43;;;14.20;99.90;;;;;;7739992;75;26288;-58
2022/11/06 22:27:55;;;;;;;8.00;3.17;;;14.30;99.90;;;;;;7735223;77;26335;-52
2022/11/06 22:37:58;;;;;;;5.07;2.93;;;14.30;99.90;;;;;;7723175;77;26307;-57
2022/11/06 22:48:00;;;;;;;4.50;2.90;;;14.30;99.90;;;;;;7731364;77;27090;-55
2022/11/06 22:58:03;;;;;;;5.40;2.90;;;14.30;99.90;;;;;;7734152;75;26288;-57
2022/11/06 23:08:06;;;;;;;5.17;2.80;;;14.30;99.90;;;;;;7728392;75;26287;-56
2022/11/06 23:18:08;;;;;;;3.87;2.27;;;14.30;99.90;;;;;;7724685;75;26268;-55
2022/11/06 23:28:11;;;;;;;6.03;2.97;;;14.30;99.90;;;;;;7738695;77;26757;-59
2022/11/06 23:38:13;;;;;;;6.77;3.07;;;14.20;99.90;;;;;;7741270;77;26322;-56
2022/11/06 23:48:17;;;;;;;5.83;2.70;;;14.20;99.90;;;;;;7742518;77;26244;-56
2022/11/06 23:58:19;;;;;;;5.67;2.67;;;14.30;99.90;;;;;;7731286;77;26310;-57
